Terminal Aerodrome Forecast
Issued by NWS Boston, MA

Current Version | Previous Version | Text Only | Print | Product List | Glossary On
Versions: 1 2 3 4 5 6 7 8 9 10 11 12 13 14 15 16 17 18 19 20 21 22 23 24 25 26 27
000 FTUS41 KBOX 191729 TAFPVD TAF KPVD 191729Z 1918/2018 18010G21KT P6SM BKN035 FM192200 19009KT P6SM OVC035 FM200000 19008KT 6SM -SHRA OVC025 FM200200 20007KT 4SM -SHRA BR OVC015 FM200300 20007KT 4SM -SHRA BR OVC010 FM200700 22007KT 4SM BR VCSH OVC008 FM201000 22006KT 6SM BR OVC015 FM201500 22009KT P6SM BKN150=

USA.gov is the U.S. government's official web portal to all federal, state and local government web resources and services.